Time;durP1;ratioP1;P1;durP2;ratioP2;P2;SDS_P1;SDS_P2;PMS_P1;PMS_P2;Temp;Humidity;BMP_temperature;BMP_pressure;BME280_temperature;BME280_humidity;BME280_pressure;Samples;Min_cycle;Max_cycle;Signal;HPM_P1;HPM_P2
2021/09/29 00:00:26;;;;;;;9.43;5.97;;;12.40;65.80;;;;;;5037960;28;20630;-87
2021/09/29 00:02:52;;;;;;;11.57;6.32;;;12.40;65.80;;;;;;5039062;28;20531;-87
2021/09/29 00:05:18;;;;;;;10.73;6.47;;;12.30;65.90;;;;;;5038617;28;20049;-86
2021/09/29 00:07:44;;;;;;;12.45;6.63;;;12.30;66.10;;;;;;5054480;28;20058;-87
2021/09/29 00:10:11;;;;;;;11.63;6.40;;;12.30;66.30;;;;;;5041710;28;20116;-88
2021/09/29 00:12:38;;;;;;;8.05;5.50;;;12.30;66.30;;;;;;5009909;28;20029;-87
2021/09/29 00:15:10;;;;;;;10.48;6.40;;;12.30;66.30;;;;;;5038365;28;20568;-87
2021/09/29 00:17:37;;;;;;;9.07;6.05;;;12.30;66.40;;;;;;5025304;28;20033;-87
2021/09/29 00:20:05;;;;;;;9.60;6.43;;;12.30;66.40;;;;;;5041164;28;20475;-87
2021/09/29 00:22:31;;;;;;;9.45;5.85;;;12.30;66.50;;;;;;5037508;28;20037;-87
2021/09/29 00:24:56;;;;;;;9.38;6.28;;;12.20;66.40;;;;;;5020797;28;20030;-87
2021/09/29 00:27:22;;;;;;;9.75;6.35;;;12.20;66.40;;;;;;5025077;28;20051;-88
2021/09/29 00:29:50;;;;;;;8.10;6.43;;;12.20;66.50;;;;;;5037099;28;20488;-88
2021/09/29 00:32:18;;;;;;;9.45;6.80;;;12.20;66.60;;;;;;5053184;28;20026;-87
2021/09/29 00:34:45;;;;;;;10.57;6.25;;;12.20;66.50;;;;;;5037499;28;20049;-87
2021/09/29 00:37:10;;;;;;;8.45;6.63;;;12.20;66.40;;;;;;5037413;28;20393;-87
2021/09/29 00:39:37;;;;;;;6.82;6.00;;;12.20;66.40;;;;;;5037596;28;20491;-87
2021/09/29 00:42:03;;;;;;;10.18;6.30;;;12.20;66.40;;;;;;5012902;28;20040;-87
2021/09/29 00:44:29;;;;;;;11.38;5.70;;;12.10;66.30;;;;;;5037754;28;20073;-87
2021/09/29 00:46:55;;;;;;;10.07;6.03;;;12.10;66.20;;;;;;5039168;28;20125;-86
2021/09/29 00:49:21;;;;;;;8.95;6.50;;;12.10;66.20;;;;;;5038094;28;20029;-86
2021/09/29 00:51:47;;;;;;;10.40;7.35;;;12.10;66.20;;;;;;5032971;28;20604;-87
2021/09/29 00:54:13;;;;;;;8.52;6.10;;;12.00;66.10;;;;;;5037125;28;20084;-87
2021/09/29 00:56:39;;;;;;;10.63;6.07;;;12.00;65.90;;;;;;5040759;28;20029;-86
2021/09/29 00:59:06;;;;;;;8.75;6.18;;;12.10;66.00;;;;;;5039953;28;20123;-87
2021/09/29 01:01:32;;;;;;;10.48;6.70;;;12.00;66.10;;;;;;5050582;28;20029;-87
2021/09/29 01:04:00;;;;;;;8.20;6.18;;;12.00;66.20;;;;;;5048938;28;20100;-87
2021/09/29 01:06:35;;;;;;;9.05;5.93;;;12.00;66.00;;;;;;5042479;28;20498;-87
2021/09/29 01:09:27;;;;;;;8.87;6.40;;;12.00;66.00;;;;;;5019328;28;20067;-87
2021/09/29 01:12:18;;;;;;;11.60;6.38;;;12.00;66.20;;;;;;5052353;28;20037;-86
2021/09/29 01:15:05;;;;;;;12.10;6.75;;;12.00;66.40;;;;;;5035643;28;20063;-88
2021/09/29 01:17:39;;;;;;;12.60;6.55;;;12.00;66.60;;;;;;5036121;28;20491;-86
2021/09/29 01:20:06;;;;;;;9.90;6.55;;;11.90;66.60;;;;;;5008641;28;20037;-85
2021/09/29 01:22:58;;;;;;;10.57;6.65;;;11.90;66.70;;;;;;5051924;28;20078;-85
2021/09/29 01:26:06;;;;;;;9.65;6.25;;;11.90;66.90;;;;;;5023272;28;20040;-87
2021/09/29 01:28:55;;;;;;;11.48;6.40;;;11.90;66.90;;;;;;5006131;28;20041;-85
2021/09/29 01:31:22;;;;;;;10.02;6.30;;;11.90;67.00;;;;;;5034789;28;20115;-84
2021/09/29 01:33:50;;;;;;;14.80;6.35;;;11.90;67.00;;;;;;5007057;28;20128;-85
2021/09/29 01:36:18;;;;;;;8.35;6.22;;;11.90;66.90;;;;;;5022555;28;20033;-85
2021/09/29 01:38:48;;;;;;;10.55;6.45;;;11.90;67.00;;;;;;5035215;28;20025;-85
2021/09/29 01:41:14;;;;;;;9.88;6.20;;;11.90;67.00;;;;;;5019949;28;20029;-86
2021/09/29 01:43:40;;;;;;;10.93;6.18;;;11.90;67.10;;;;;;5024550;28;20570;-86
2021/09/29 01:46:07;;;;;;;8.70;5.90;;;11.90;67.10;;;;;;5035732;28;20428;-85
2021/09/29 01:48:40;;;;;;;7.45;5.97;;;11.80;66.90;;;;;;5018391;28;20086;-86
2021/09/29 01:51:06;;;;;;;10.88;6.50;;;11.80;66.90;;;;;;5036593;28;20076;-86
2021/09/29 01:53:33;;;;;;;8.13;6.25;;;11.80;66.80;;;;;;5035633;28;20037;-86
2021/09/29 01:56:00;;;;;;;13.40;6.80;;;11.80;66.80;;;;;;5047624;28;20029;-86
2021/09/29 01:58:31;;;;;;;10.10;6.70;;;11.80;66.70;;;;;;5031329;28;20021;-86
2021/09/29 02:00:57;;;;;;;12.85;6.65;;;11.80;66.70;;;;;;5042500;28;20395;-86
2021/09/29 02:03:26;;;;;;;11.82;6.10;;;11.80;66.70;;;;;;5035882;28;20392;-85
2021/09/29 02:05:52;;;;;;;11.70;6.72;;;11.80;66.70;;;;;;5035807;28;20060;-86
2021/09/29 02:08:18;;;;;;;10.07;6.13;;;11.80;66.80;;;;;;5036037;28;20025;-86
2021/09/29 02:10:44;;;;;;;10.85;6.45;;;11.70;66.70;;;;;;5035908;28;20030;-87
2021/09/29 02:13:11;;;;;;;10.18;6.82;;;11.70;66.70;;;;;;5035207;28;20057;-86
2021/09/29 02:15:37;;;;;;;11.40;6.45;;;11.70;66.60;;;;;;5036406;28;20036;-85
2021/09/29 02:18:03;;;;;;;12.10;6.22;;;11.70;66.50;;;;;;5035386;28;20586;-87
2021/09/29 02:20:29;;;;;;;10.93;6.75;;;11.70;66.40;;;;;;5037175;28;20123;-86
2021/09/29 02:22:55;;;;;;;10.88;6.70;;;11.70;66.60;;;;;;5056489;28;20041;-86
2021/09/29 02:25:21;;;;;;;11.73;6.07;;;11.70;66.50;;;;;;5044011;28;20051;-86
2021/09/29 02:27:47;;;;;;;11.07;6.70;;;11.70;66.50;;;;;;5021595;28;20025;-87
2021/09/29 02:30:13;;;;;;;11.45;6.28;;;11.60;66.40;;;;;;5055236;28;20075;-87
2021/09/29 02:32:39;;;;;;;10.75;6.32;;;11.70;66.50;;;;;;5038995;28;20120;-86
2021/09/29 02:35:08;;;;;;;9.30;5.95;;;11.60;66.50;;;;;;5038104;28;20037;-86
2021/09/29 02:37:34;;;;;;;12.75;7.30;;;11.60;66.60;;;;;;5039959;28;20077;-86
2021/09/29 02:40:00;;;;;;;9.60;5.57;;;11.60;66.50;;;;;;5014877;28;20056;-87
2021/09/29 02:42:26;;;;;;;9.95;6.05;;;11.60;66.60;;;;;;5022458;28;20029;-87
2021/09/29 02:44:52;;;;;;;11.55;5.97;;;11.60;66.60;;;;;;5043223;28;20111;-87
2021/09/29 02:47:18;;;;;;;12.77;7.00;;;11.60;66.70;;;;;;5022317;28;20033;-86
2021/09/29 02:49:44;;;;;;;12.25;7.10;;;11.60;66.80;;;;;;5013230;28;20437;-86
2021/09/29 02:52:10;;;;;;;11.88;5.78;;;11.60;66.90;;;;;;5047953;28;20032;-87
2021/09/29 02:54:36;;;;;;;15.43;6.90;;;11.60;66.90;;;;;;5036635;28;20048;-86
2021/09/29 02:57:02;;;;;;;16.38;7.97;;;11.60;67.00;;;;;;5025377;28;20123;-87
2021/09/29 02:59:27;;;;;;;12.70;6.72;;;11.60;67.10;;;;;;5037089;28;20040;-88
2021/09/29 03:01:53;;;;;;;17.90;6.75;;;11.50;67.00;;;;;;5026147;28;20037;-87
2021/09/29 03:04:19;;;;;;;11.65;6.18;;;11.50;66.90;;;;;;5039150;28;20111;-87
2021/09/29 03:06:45;;;;;;;14.63;7.00;;;11.60;66.80;;;;;;5037652;28;20029;-87
2021/09/29 03:09:11;;;;;;;11.82;6.72;;;11.50;66.70;;;;;;5040205;28;20021;-87
2021/09/29 03:11:37;;;;;;;15.77;6.43;;;11.50;66.60;;;;;;5039898;28;20057;-87
2021/09/29 03:14:03;;;;;;;12.52;6.78;;;11.50;66.70;;;;;;5040106;28;20026;-87
2021/09/29 03:16:29;;;;;;;11.80;6.95;;;11.50;66.60;;;;;;5035532;28;20060;-88
2021/09/29 03:18:55;;;;;;;10.23;6.68;;;11.50;66.60;;;;;;5027432;28;20030;-89
2021/09/29 03:21:22;;;;;;;14.27;6.75;;;11.50;66.60;;;;;;5037431;28;20035;-88
2021/09/29 03:23:48;;;;;;;14.63;7.00;;;11.50;66.60;;;;;;5038515;28;20063;-88
2021/09/29 03:26:14;;;;;;;10.50;6.63;;;11.50;66.70;;;;;;5039199;28;20566;-88
2021/09/29 03:28:39;;;;;;;12.25;6.32;;;11.40;66.70;;;;;;5038007;28;20074;-88
2021/09/29 03:31:05;;;;;;;12.57;6.18;;;11.40;66.70;;;;;;5037692;28;20501;-87
2021/09/29 03:33:31;;;;;;;8.32;6.18;;;11.40;66.90;;;;;;5041622;28;20123;-88
2021/09/29 03:35:57;;;;;;;9.93;5.78;;;11.40;66.90;;;;;;5036399;28;20037;-87
2021/09/29 03:38:23;;;;;;;11.75;6.68;;;11.40;66.90;;;;;;5038853;28;20524;-87
2021/09/29 03:40:49;;;;;;;11.02;6.75;;;11.40;67.00;;;;;;5036623;28;20029;-86
2021/09/29 03:43:15;;;;;;;12.15;6.50;;;11.40;67.10;;;;;;5039898;28;20064;-86
2021/09/29 03:45:41;;;;;;;11.20;7.38;;;11.40;67.00;;;;;;5041684;28;20480;-87
2021/09/29 03:48:07;;;;;;;9.65;6.18;;;11.40;67.00;;;;;;5051162;28;20093;-86
2021/09/29 03:50:33;;;;;;;12.50;6.30;;;11.40;67.00;;;;;;5052018;28;20112;-86
2021/09/29 03:52:59;;;;;;;13.40;6.85;;;11.40;67.00;;;;;;5035900;28;20051;-86
2021/09/29 03:55:25;;;;;;;11.52;6.47;;;11.40;66.90;;;;;;5040879;28;20040;-87
2021/09/29 03:57:51;;;;;;;13.65;7.18;;;11.40;66.90;;;;;;5021584;28;20076;-87
2021/09/29 04:00:17;;;;;;;12.38;6.72;;;11.40;66.90;;;;;;5037445;28;20025;-87
2021/09/29 04:02:43;;;;;;;13.93;6.95;;;11.40;67.00;;;;;;5034504;28;20029;-87
2021/09/29 04:05:10;;;;;;;13.48;6.97;;;11.40;67.00;;;;;;5024135;28;20167;-87
2021/09/29 04:07:36;;;;;;;13.85;6.78;;;11.40;67.10;;;;;;5035600;28;20061;-85
2021/09/29 04:10:03;;;;;;;12.55;6.68;;;11.40;67.20;;;;;;5038202;28;20120;-86
2021/09/29 04:12:29;;;;;;;13.80;6.85;;;11.40;67.30;;;;;;5036281;28;20523;-85
2021/09/29 04:14:55;;;;;;;11.05;6.93;;;11.40;67.40;;;;;;5042674;28;20033;-85
2021/09/29 04:17:21;;;;;;;13.93;7.65;;;11.40;67.50;;;;;;5038012;28;20503;-86
2021/09/29 04:19:47;;;;;;;10.05;6.45;;;11.40;67.60;;;;;;5035098;28;20055;-84
2021/09/29 04:22:13;;;;;;;11.77;6.95;;;11.50;67.60;;;;;;5037607;28;20040;-86
2021/09/29 04:24:41;;;;;;;11.32;6.90;;;11.50;67.70;;;;;;5035313;28;20040;-85
2021/09/29 04:27:08;;;;;;;8.98;6.60;;;11.50;67.80;;;;;;5032003;28;20990;-86
2021/09/29 04:29:35;;;;;;;11.93;7.30;;;11.50;67.90;;;;;;5035216;28;20048;-87
2021/09/29 04:32:01;;;;;;;11.30;6.85;;;11.50;67.90;;;;;;5041745;28;20074;-91
2021/09/29 04:34:27;;;;;;;14.65;6.85;;;11.60;68.00;;;;;;5053776;28;20029;-89
2021/09/29 04:36:53;;;;;;;12.25;6.93;;;11.50;68.10;;;;;;5041726;28;20048;-89
2021/09/29 04:39:19;;;;;;;13.52;7.57;;;11.60;68.20;;;;;;5036878;28;20746;-87
2021/09/29 04:41:45;;;;;;;13.57;7.38;;;11.60;68.30;;;;;;5054925;28;20029;-88
2021/09/29 04:44:11;;;;;;;12.10;7.85;;;11.60;68.40;;;;;;5046786;28;20095;-88
2021/09/29 04:46:37;;;;;;;13.82;8.18;;;11.60;68.40;;;;;;5050602;28;20028;-87
2021/09/29 04:49:03;;;;;;;13.70;7.50;;;11.60;68.60;;;;;;5038539;28;20033;-87
2021/09/29 04:51:29;;;;;;;11.52;7.68;;;11.60;68.60;;;;;;5036348;28;20030;-88
2021/09/29 04:53:55;;;;;;;14.65;7.32;;;11.70;68.80;;;;;;5053170;28;20034;-87
2021/09/29 04:56:21;;;;;;;12.50;7.95;;;11.70;69.00;;;;;;5050632;28;20373;-88
2021/09/29 04:58:47;;;;;;;12.23;7.38;;;11.70;69.10;;;;;;5035427;28;20034;-88
2021/09/29 05:01:13;;;;;;;13.95;7.60;;;11.70;69.30;;;;;;5036364;28;20037;-89
2021/09/29 05:03:40;;;;;;;16.15;7.88;;;11.70;69.50;;;;;;5037115;28;20032;-86
2021/09/29 05:06:06;;;;;;;10.93;7.20;;;11.70;69.50;;;;;;5037916;28;20045;-88
2021/09/29 05:08:34;;;;;;;13.80;7.38;;;11.80;69.60;;;;;;5035771;28;20116;-88
2021/09/29 05:11:20;;;;;;;13.70;7.88;;;11.80;69.70;;;;;;5037510;28;20028;-90
2021/09/29 05:13:46;;;;;;;14.70;7.82;;;11.90;70.30;;;;;;5038709;28;20025;-90
2021/09/29 05:16:13;;;;;;;15.88;7.28;;;11.90;71.20;;;;;;5044276;28;20055;-90
2021/09/29 05:18:39;;;;;;;18.95;7.60;;;11.80;72.10;;;;;;5053192;28;20033;-88
2021/09/29 05:21:06;;;;;;;14.25;7.55;;;11.90;72.90;;;;;;5045712;28;20086;-89
2021/09/29 05:23:32;;;;;;;15.20;6.97;;;12.10;73.50;;;;;;5014154;28;20042;-89
2021/09/29 05:26:01;;;;;;;16.17;7.40;;;12.20;73.90;;;;;;5029133;28;20563;-90
2021/09/29 05:28:31;;;;;;;17.50;7.35;;;12.30;74.00;;;;;;5051709;28;20033;-89
2021/09/29 05:30:58;;;;;;;10.93;7.38;;;12.40;74.00;;;;;;5041755;28;20028;-89
2021/09/29 05:33:24;;;;;;;9.93;6.97;;;12.50;74.20;;;;;;5047616;28;20065;-91
2021/09/29 05:35:50;;;;;;;15.55;7.05;;;12.60;74.40;;;;;;5042336;28;20025;-89
2021/09/29 05:38:16;;;;;;;12.02;6.25;;;12.70;74.60;;;;;;5044201;28;20037;-91
2021/09/29 05:40:42;;;;;;;11.70;7.18;;;12.80;74.50;;;;;;5058852;28;20033;-93
2021/09/29 05:43:08;;;;;;;11.38;6.40;;;12.80;74.40;;;;;;5040457;28;20039;-90
2021/09/29 05:45:34;;;;;;;14.63;6.07;;;13.00;74.40;;;;;;5040008;28;20342;-90
2021/09/29 05:48:00;;;;;;;9.73;5.85;;;13.10;74.40;;;;;;5040414;28;20083;-90
2021/09/29 05:50:26;;;;;;;11.35;5.93;;;13.10;74.40;;;;;;5039856;28;20510;-91
2021/09/29 05:52:52;;;;;;;9.18;5.70;;;13.30;74.50;;;;;;5038987;28;20075;-89
2021/09/29 05:55:17;;;;;;;9.60;5.53;;;13.30;74.50;;;;;;5035023;28;20106;-89
2021/09/29 05:57:43;;;;;;;10.90;6.07;;;13.40;74.50;;;;;;5034713;28;20037;-89
2021/09/29 06:00:10;;;;;;;9.13;5.80;;;13.50;74.60;;;;;;5021846;28;20029;-91
2021/09/29 06:02:40;;;;;;;7.75;5.55;;;13.60;74.60;;;;;;5017467;28;20442;-88
2021/09/29 06:05:06;;;;;;;11.45;5.57;;;13.70;74.60;;;;;;5035834;28;20041;-90
2021/09/29 06:07:32;;;;;;;9.52;5.05;;;13.80;74.60;;;;;;5035653;28;20033;-90
2021/09/29 06:09:58;;;;;;;10.05;5.85;;;13.90;74.60;;;;;;5034622;28;20515;-90
2021/09/29 06:12:24;;;;;;;10.25;5.50;;;14.00;74.60;;;;;;5034940;28;20033;-90
2021/09/29 06:14:53;;;;;;;9.60;5.68;;;14.10;74.70;;;;;;5022719;28;20041;-90
2021/09/29 06:17:24;;;;;;;8.52;5.55;;;14.20;74.70;;;;;;5037040;28;20124;-92
2021/09/29 06:19:54;;;;;;;7.40;5.28;;;14.30;74.70;;;;;;5036877;28;20071;-91
2021/09/29 06:22:21;;;;;;;11.25;5.85;;;14.30;74.60;;;;;;5037078;28;20069;-89
2021/09/29 06:24:48;;;;;;;12.15;7.65;;;14.40;74.70;;;;;;5038128;28;20450;-92
2021/09/29 06:27:14;;;;;;;12.15;7.68;;;14.50;74.80;;;;;;5039133;28;20067;-91
2021/09/29 06:29:41;;;;;;;12.40;8.25;;;14.60;74.90;;;;;;5036980;28;20091;-90
2021/09/29 06:32:07;;;;;;;12.40;8.02;;;14.60;75.00;;;;;;5040096;28;20033;-91
2021/09/29 06:34:33;;;;;;;14.80;7.57;;;14.70;75.00;;;;;;5071306;28;20041;-90
2021/09/29 06:36:59;;;;;;;21.23;7.65;;;14.80;75.10;;;;;;5071594;28;20037;-90
2021/09/29 06:39:25;;;;;;;9.10;6.65;;;14.90;75.20;;;;;;5044293;28;20499;-91
2021/09/29 06:41:51;;;;;;;11.27;7.18;;;14.90;75.00;;;;;;5047385;28;20048;-90
2021/09/29 06:44:17;;;;;;;7.45;5.80;;;15.10;75.00;;;;;;5054149;28;20029;-93
2021/09/29 06:46:43;;;;;;;8.20;5.80;;;15.10;74.90;;;;;;5033410;28;20040;-92
2021/09/29 06:49:09;;;;;;;9.43;5.85;;;15.20;74.90;;;;;;5033445;28;20030;-92
2021/09/29 06:51:35;;;;;;;7.75;5.40;;;15.30;75.00;;;;;;5046658;28;20120;-92
2021/09/29 06:54:01;;;;;;;14.07;5.47;;;15.30;75.10;;;;;;5050519;28;20060;-90
2021/09/29 06:56:27;;;;;;;7.68;4.90;;;15.40;74.90;;;;;;5050404;28;20036;-92
2021/09/29 06:58:53;;;;;;;7.50;5.18;;;15.50;74.50;;;;;;5031407;28;20412;-91
2021/09/29 07:01:22;;;;;;;8.93;5.07;;;15.60;74.70;;;;;;5034320;28;20029;-91
2021/09/29 07:03:49;;;;;;;7.82;4.60;;;15.70;75.00;;;;;;5045369;28;20113;-91
2021/09/29 07:06:16;;;;;;;11.35;5.30;;;15.90;74.80;;;;;;5036007;28;20036;-92
2021/09/29 07:08:43;;;;;;;8.57;4.65;;;16.00;74.30;;;;;;5021608;28;20108;-91
2021/09/29 07:11:09;;;;;;;8.60;4.78;;;16.10;74.10;;;;;;5024858;28;20029;-90
2021/09/29 07:13:35;;;;;;;8.70;4.70;;;16.30;73.50;;;;;;5037398;28;20048;-90
2021/09/29 07:16:02;;;;;;;6.32;4.97;;;16.40;73.60;;;;;;5048820;28;20111;-91
2021/09/29 07:18:31;;;;;;;5.65;4.75;;;16.50;72.90;;;;;;5035195;28;20028;-92
2021/09/29 07:20:58;;;;;;;7.18;4.65;;;16.60;71.90;;;;;;5038039;28;20040;-94
2021/09/29 07:23:24;;;;;;;8.55;4.80;;;16.70;71.30;;;;;;5029296;28;20043;-91
2021/09/29 07:25:50;;;;;;;13.88;5.07;;;16.80;71.20;;;;;;5038893;28;20407;-89
2021/09/29 07:28:16;;;;;;;7.80;4.70;;;16.90;70.90;;;;;;5042029;28;20034;-89
2021/09/29 07:30:45;;;;;;;8.48;5.05;;;16.90;70.00;;;;;;5053716;28;20033;-89
2021/09/29 07:33:12;;;;;;;6.30;4.75;;;17.00;69.70;;;;;;5043097;28;20025;-88
2021/09/29 07:35:40;;;;;;;21.17;4.97;;;17.00;69.20;;;;;;5037784;28;20029;-89
2021/09/29 07:38:07;;;;;;;10.27;5.07;;;17.00;68.90;;;;;;5028172;28;20028;-89
2021/09/29 07:40:34;;;;;;;8.85;5.10;;;17.00;68.00;;;;;;5038459;28;20040;-89
2021/09/29 07:43:00;;;;;;;11.55;4.88;;;17.00;66.40;;;;;;5037362;28;20040;-89
2021/09/29 07:45:27;;;;;;;6.82;4.63;;;17.00;65.60;;;;;;5037514;28;20090;-90
2021/09/29 07:47:53;;;;;;;7.70;4.47;;;17.00;64.90;;;;;;5040332;28;20107;-89
2021/09/29 07:50:20;;;;;;;5.75;4.20;;;17.00;63.90;;;;;;5020420;28;20033;-88
2021/09/29 07:52:47;;;;;;;8.13;4.55;;;16.90;62.90;;;;;;5026525;28;20067;-89
2021/09/29 07:55:13;;;;;;;8.00;4.55;;;16.90;62.30;;;;;;5041228;28;20033;-89
2021/09/29 07:57:40;;;;;;;7.40;4.30;;;16.90;62.40;;;;;;5013481;28;20527;-89
2021/09/29 08:00:08;;;;;;;8.07;4.60;;;16.90;62.40;;;;;;5021093;28;20029;-89
2021/09/29 08:02:40;;;;;;;8.50;4.18;;;16.90;62.60;;;;;;5036662;28;20040;-89
2021/09/29 08:05:06;;;;;;;8.38;4.82;;;16.90;63.00;;;;;;5024299;28;20135;-89
2021/09/29 08:07:32;;;;;;;6.90;4.43;;;16.80;62.90;;;;;;5043941;28;20033;-89
2021/09/29 08:09:58;;;;;;;5.88;3.92;;;16.80;63.10;;;;;;5036492;28;20029;-89
2021/09/29 08:12:24;;;;;;;7.00;4.13;;;16.80;63.40;;;;;;5036793;28;20434;-89
2021/09/29 08:14:50;;;;;;;6.18;4.53;;;16.80;63.70;;;;;;5008437;28;20506;-88
2021/09/29 08:17:16;;;;;;;9.82;5.88;;;16.90;63.80;;;;;;5038414;28;20049;-88
2021/09/29 08:19:42;;;;;;;12.80;6.93;;;16.80;63.30;;;;;;5025848;28;20032;-88
2021/09/29 08:22:09;;;;;;;9.52;7.10;;;16.80;63.40;;;;;;5021136;28;20488;-88
2021/09/29 08:30:26;;;;;;;8.00;5.97;;;16.80;64.50;;;;;;4988552;28;20041;-87
2021/09/29 08:32:59;;;;;;;9.93;4.95;;;16.80;64.20;;;;;;5016812;28;20135;-88
2021/09/29 08:35:29;;;;;;;6.03;4.50;;;16.80;64.10;;;;;;5038608;28;20046;-88
2021/09/29 08:38:11;;;;;;;6.55;4.50;;;16.70;63.90;;;;;;5012181;28;20041;-89
2021/09/29 08:43:21;;;;;;;7.25;4.35;;;16.70;62.30;;;;;;5040045;28;20053;-88
2021/09/29 09:18:25;;;;;;;5.22;3.63;;;16.40;61.30;;;;;;5036344;28;20037;-88
2021/09/29 09:21:05;;;;;;;6.47;3.53;;;16.40;61.50;;;;;;5019311;28;20049;-87
2021/09/29 09:23:41;;;;;;;5.53;3.53;;;16.40;61.50;;;;;;5036057;28;20030;-88
2021/09/29 09:26:14;;;;;;;5.82;3.38;;;16.40;61.80;;;;;;5030382;28;20035;-88
2021/09/29 09:28:41;;;;;;;4.38;3.30;;;16.30;62.10;;;;;;5027649;28;20132;-88
2021/09/29 09:31:12;;;;;;;4.43;3.40;;;16.40;62.40;;;;;;5012771;28;20029;-88
2021/09/29 09:33:50;;;;;;;3.65;2.90;;;16.30;61.90;;;;;;5035887;28;20037;-87
2021/09/29 09:36:38;;;;;;;7.10;3.53;;;16.30;62.50;;;;;;5022075;28;20147;-88
2021/09/29 09:39:09;;;;;;;4.03;3.20;;;16.30;62.40;;;;;;5041075;28;20043;-88
2021/09/29 09:41:37;;;;;;;3.63;3.00;;;16.30;62.60;;;;;;5036495;28;20028;-89
2021/09/29 09:44:05;;;;;;;4.72;3.47;;;16.20;62.60;;;;;;5039274;28;20035;-88
2021/09/29 09:46:31;;;;;;;4.97;3.30;;;16.20;62.20;;;;;;5034254;28;20429;-89
2021/09/29 09:49:08;;;;;;;4.10;3.50;;;16.30;62.60;;;;;;5035145;28;20122;-87
2021/09/29 09:51:59;;;;;;;5.28;3.35;;;16.30;63.20;;;;;;5021837;28;20033;-89
2021/09/29 09:54:41;;;;;;;7.50;3.90;;;16.30;63.10;;;;;;5037180;28;20071;-89
2021/09/29 09:57:21;;;;;;;5.78;3.38;;;16.30;62.40;;;;;;5024567;28;20033;-89
2021/09/29 09:59:48;;;;;;;5.80;3.85;;;16.20;62.50;;;;;;5036029;28;20499;-89
2021/09/29 10:02:14;;;;;;;4.60;3.42;;;16.20;61.80;;;;;;5035328;28;20032;-88
2021/09/29 10:04:40;;;;;;;4.25;3.85;;;16.20;62.00;;;;;;5018420;28;20266;-88
2021/09/29 10:07:07;;;;;;;6.32;3.75;;;16.20;62.00;;;;;;5036403;28;20115;-89
2021/09/29 10:09:48;;;;;;;4.68;3.78;;;16.20;62.50;;;;;;5036017;28;20033;-89
2021/09/29 10:26:14;;;;;;;4.95;3.28;;;16.20;62.50;;;;;;5035567;28;20037;-88
2021/09/29 10:28:42;;;;;;;7.40;3.67;;;16.20;62.70;;;;;;5040813;28;20037;-88
2021/09/29 10:33:42;;;;;;;5.63;3.83;;;16.20;63.30;;;;;;5035234;28;21419;-88
2021/09/29 10:36:22;;;;;;;3.88;3.50;;;16.20;63.50;;;;;;5051152;28;20029;-88
2021/09/29 10:44:31;;;;;;;6.05;4.03;;;16.20;62.50;;;;;;5025917;28;20335;-88
2021/09/29 10:47:17;;;;;;;5.10;3.85;;;16.20;62.50;;;;;;5038398;28;20041;-88
2021/09/29 11:29:00;;;;;;;5.28;3.97;;;16.00;62.90;;;;;;5045781;28;20037;-88
2021/09/29 11:31:41;;;;;;;7.50;3.95;;;16.10;63.40;;;;;;5019877;28;20103;-88
2021/09/29 11:34:10;;;;;;;5.40;3.38;;;16.10;63.70;;;;;;5048086;28;20033;-88
2021/09/29 12:14:52;;;;;;;5.20;3.88;;;16.10;63.90;;;;;;5030134;28;20176;-87
2021/09/29 12:17:23;;;;;;;4.05;3.65;;;16.10;64.20;;;;;;5035644;28;20486;-87
2021/09/29 12:19:54;;;;;;;5.45;4.20;;;16.20;64.40;;;;;;5024153;28;20056;-87
2021/09/29 12:22:21;;;;;;;6.45;4.38;;;16.10;64.20;;;;;;5045547;28;20040;-87
2021/09/29 12:24:52;;;;;;;5.47;4.88;;;16.20;64.10;;;;;;5041281;28;20034;-87
2021/09/29 12:27:39;;;;;;;5.43;4.57;;;16.10;63.40;;;;;;5035188;28;20095;-87
2021/09/29 12:30:22;;;;;;;6.38;4.68;;;16.10;63.10;;;;;;5043855;28;20043;-88
2021/09/29 12:35:46;;;;;;;8.32;5.10;;;16.10;62.80;;;;;;5037245;28;20036;-87
2021/09/29 12:38:13;;;;;;;8.98;4.75;;;16.00;62.10;;;;;;5038466;28;20044;-86
2021/09/29 12:40:44;;;;;;;8.57;5.05;;;16.00;62.00;;;;;;5035956;28;20663;-87
2021/09/29 12:43:17;;;;;;;5.47;4.90;;;16.00;62.20;;;;;;5038051;28;20036;-86
2021/09/29 12:45:47;;;;;;;7.68;5.35;;;15.90;62.10;;;;;;5024627;28;20060;-86
2021/09/29 12:48:14;;;;;;;6.20;4.40;;;15.90;62.10;;;;;;5019416;28;20029;-86
2021/09/29 12:55:54;;;;;;;17.37;5.90;;;15.90;62.50;;;;;;5035917;28;20041;-87
2021/09/29 12:58:20;;;;;;;5.55;4.88;;;15.80;62.30;;;;;;5036850;28;20051;-87
2021/09/29 13:00:46;;;;;;;7.70;5.32;;;15.80;62.20;;;;;;5034632;28;20037;-87
2021/09/29 13:03:12;;;;;;;9.02;4.97;;;15.90;62.60;;;;;;5034461;28;20451;-88
2021/09/29 13:05:39;;;;;;;7.78;4.60;;;15.80;62.70;;;;;;5050908;28;20099;-87
2021/09/29 13:08:05;;;;;;;7.03;5.40;;;15.80;62.80;;;;;;5053132;28;20037;-87
2021/09/29 13:10:31;;;;;;;7.95;5.28;;;15.80;62.90;;;;;;5034971;28;20086;-87
2021/09/29 13:12:57;;;;;;;7.88;5.30;;;15.80;62.80;;;;;;5038891;28;20041;-86
2021/09/29 13:15:24;;;;;;;5.60;4.82;;;15.80;62.40;;;;;;5037205;28;20071;-87
2021/09/29 13:17:51;;;;;;;9.52;5.40;;;15.80;61.90;;;;;;5034775;28;20041;-87
2021/09/29 13:20:22;;;;;;;9.00;5.57;;;15.80;61.80;;;;;;5034234;28;20068;-88
2021/09/29 13:22:55;;;;;;;7.90;5.55;;;15.80;61.80;;;;;;5036473;28;20084;-87
2021/09/29 13:37:03;;;;;;;7.57;5.50;;;15.60;62.60;;;;;;4955604;28;20039;-87
2021/09/29 13:39:29;;;;;;;8.05;6.15;;;15.60;62.60;;;;;;4995912;28;20071;-87
2021/09/29 13:41:55;;;;;;;11.90;6.20;;;15.60;63.00;;;;;;5037103;28;20033;-87
2021/09/29 13:44:23;;;;;;;9.38;6.32;;;15.60;63.40;;;;;;5035662;28;20035;-87
2021/09/29 13:46:49;;;;;;;7.68;5.95;;;15.60;63.70;;;;;;5036781;28;20654;-87
2021/09/29 13:49:15;;;;;;;9.50;7.03;;;15.60;63.60;;;;;;5036163;28;20037;-86
2021/09/29 13:51:46;;;;;;;9.15;6.70;;;15.60;63.40;;;;;;5022684;28;20651;-87
2021/09/29 13:54:17;;;;;;;8.43;5.97;;;15.60;63.10;;;;;;5036864;28;20033;-88
2021/09/29 13:56:52;;;;;;;9.50;6.90;;;15.60;63.70;;;;;;5037154;28;20040;-87
2021/09/29 14:34:05;;;;;;;16.08;8.27;;;15.40;62.40;;;;;;4971367;28;20042;-86
2021/09/29 14:36:31;;;;;;;17.17;10.10;;;15.40;65.30;;;;;;5047033;28;20029;-87
2021/09/29 14:38:57;;;;;;;14.23;9.65;;;15.40;64.10;;;;;;5066228;28;20344;-87
2021/09/29 14:41:23;;;;;;;13.50;9.02;;;15.40;63.40;;;;;;5016454;28;20129;-87
2021/09/29 14:43:52;;;;;;;14.57;10.38;;;15.40;62.80;;;;;;5051840;28;20043;-94
2021/09/29 14:46:17;;;;;;;11.63;8.52;;;15.40;62.60;;;;;;5045323;28;20043;-89
2021/09/29 14:48:44;;;;;;;11.20;8.77;;;15.30;64.40;;;;;;5052013;28;20025;-89
2021/09/29 14:51:10;;;;;;;14.15;8.20;;;15.40;66.40;;;;;;5041645;28;20033;-88
2021/09/29 14:53:37;;;;;;;10.25;8.15;;;15.40;67.40;;;;;;5034086;28;20396;-88
2021/09/29 14:56:05;;;;;;;11.25;8.20;;;15.40;68.30;;;;;;5049667;28;20036;-88
2021/09/29 14:58:32;;;;;;;11.13;8.90;;;15.50;69.00;;;;;;5051687;28;20571;-88
2021/09/29 15:00:59;;;;;;;12.75;9.00;;;15.50;69.50;;;;;;5047342;28;20037;-88
2021/09/29 15:03:25;;;;;;;12.88;8.82;;;15.50;69.50;;;;;;5033063;28;20447;-89
2021/09/29 15:05:53;;;;;;;9.50;7.93;;;15.60;69.70;;;;;;5041748;28;20449;-89
2021/09/29 15:08:19;;;;;;;13.23;10.20;;;15.70;70.00;;;;;;5039470;28;20029;-88
2021/09/29 15:10:45;;;;;;;13.20;8.90;;;15.70;70.10;;;;;;5038321;28;20502;-88
2021/09/29 15:13:14;;;;;;;13.40;9.77;;;15.80;70.40;;;;;;5039969;28;20116;-88
2021/09/29 15:18:33;;;;;;;13.55;9.82;;;15.90;70.00;;;;;;5055609;28;20075;-88
2021/09/29 15:31:32;;;;;;;16.95;10.82;;;16.10;70.40;;;;;;5024288;28;20416;-88
2021/09/29 15:47:52;;;;;;;18.90;13.13;;;16.30;71.60;;;;;;5039097;28;20086;-89
2021/09/29 15:50:37;;;;;;;17.75;12.98;;;16.30;71.50;;;;;;5037902;28;20045;-88
2021/09/29 16:30:09;;;;;;;21.70;13.80;;;15.50;61.50;;;;;;5045945;28;20044;-85
2021/09/29 16:37:34;;;;;;;19.55;13.13;;;15.30;61.90;;;;;;5045697;28;20041;-85
2021/09/29 16:40:00;;;;;;;19.13;13.55;;;15.30;62.40;;;;;;5044024;28;20478;-88
2021/09/29 16:42:27;;;;;;;20.33;13.88;;;15.20;62.80;;;;;;5038889;28;20124;-89
2021/09/29 16:44:53;;;;;;;23.65;13.50;;;15.20;63.10;;;;;;5051231;28;20037;-89
2021/09/29 16:47:19;;;;;;;19.65;13.68;;;15.20;63.60;;;;;;5037754;28;20040;-87
2021/09/29 16:49:46;;;;;;;18.35;12.63;;;15.20;63.70;;;;;;5053095;28;20053;-90
2021/09/29 16:54:41;;;;;;;17.35;12.77;;;15.10;63.10;;;;;;5032649;28;20401;-88
2021/09/29 16:57:13;;;;;;;16.73;12.70;;;15.10;63.00;;;;;;5032763;28;20087;-88
2021/09/29 16:59:50;;;;;;;17.40;12.55;;;15.10;63.00;;;;;;5032583;28;20497;-88
2021/09/29 17:02:16;;;;;;;17.02;12.48;;;15.00;62.90;;;;;;5042432;28;20033;-88
2021/09/29 17:04:45;;;;;;;16.38;12.60;;;15.00;63.20;;;;;;5051949;28;20047;-88
2021/09/29 17:07:12;;;;;;;18.55;13.05;;;14.90;63.30;;;;;;5037416;28;20057;-89
2021/09/29 17:09:38;;;;;;;16.58;12.18;;;14.90;63.40;;;;;;5032386;28;20093;-87
2021/09/29 17:12:05;;;;;;;17.83;12.65;;;14.90;63.60;;;;;;5036692;28;20064;-87